sensor_id;sensor_type;location;lat;lon;timestamp;P1;durP1;ratioP1;P2;durP2;ratioP2
13075;SDS011;6604;52.484;13.330;2022-08-30T07:48:33;16.67;;;9.17;;
13075;SDS011;6604;52.484;13.330;2022-08-30T07:51:00;11.70;;;9.03;;
13075;SDS011;6604;52.484;13.330;2022-08-30T07:53:29;13.10;;;9.20;;
13075;SDS011;6604;52.484;13.330;2022-08-30T07:55:55;10.57;;;8.57;;
13075;SDS011;6604;52.484;13.330;2022-08-30T07:58:22;10.57;;;8.40;;
13075;SDS011;6604;52.484;13.330;2022-08-30T08:00:48;12.27;;;9.40;;
13075;SDS011;6604;52.484;13.330;2022-08-30T08:03:14;9.37;;;8.07;;
13075;SDS011;6604;52.484;13.330;2022-08-30T08:05:43;9.77;;;7.73;;
13075;SDS011;6604;52.484;13.330;2022-08-30T08:08:10;9.90;;;7.30;;
13075;SDS011;6604;52.484;13.330;2022-08-30T08:10:38;10.13;;;8.20;;
13075;SDS011;6604;52.484;13.330;2022-08-30T08:13:05;7.90;;;6.80;;
13075;SDS011;6604;52.484;13.330;2022-08-30T08:15:31;7.70;;;6.90;;
13075;SDS011;6604;52.484;13.330;2022-08-30T08:17:58;7.93;;;6.87;;
13075;SDS011;6604;52.484;13.330;2022-08-30T08:20:25;7.27;;;6.57;;
13075;SDS011;6604;52.484;13.330;2022-08-30T08:22:53;7.23;;;6.53;;
13075;SDS011;6604;52.484;13.330;2022-08-30T08:25:19;9.77;;;7.10;;
13075;SDS011;6604;52.484;13.330;2022-08-30T08:27:46;8.10;;;6.37;;
13075;SDS011;6604;52.484;13.330;2022-08-30T08:30:13;9.13;;;7.40;;
13075;SDS011;6604;52.484;13.330;2022-08-30T08:32:39;7.13;;;6.27;;
13075;SDS011;6604;52.484;13.330;2022-08-30T08:35:06;9.10;;;6.77;;
13075;SDS011;6604;52.484;13.330;2022-08-30T08:37:32;6.57;;;5.97;;
13075;SDS011;6604;52.484;13.330;2022-08-30T08:40:00;6.13;;;5.53;;
13075;SDS011;6604;52.484;13.330;2022-08-30T08:42:29;6.43;;;5.80;;
13075;SDS011;6604;52.484;13.330;2022-08-30T08:44:58;5.87;;;5.37;;
13075;SDS011;6604;52.484;13.330;2022-08-30T08:47:27;5.47;;;4.73;;
13075;SDS011;6604;52.484;13.330;2022-08-30T08:49:56;4.87;;;4.47;;
13075;SDS011;6604;52.484;13.330;2022-08-30T08:52:24;4.80;;;4.30;;
13075;SDS011;6604;52.484;13.330;2022-08-30T08:55:12;4.67;;;4.27;;
13075;SDS011;6604;52.484;13.330;2022-08-30T08:57:39;4.80;;;4.30;;
13075;SDS011;6604;52.484;13.330;2022-08-30T09:00:06;4.23;;;3.90;;
13075;SDS011;6604;52.484;13.330;2022-08-30T09:02:37;4.17;;;3.77;;
13075;SDS011;6604;52.484;13.330;2022-08-30T09:05:05;4.20;;;3.50;;
13075;SDS011;6604;52.484;13.330;2022-08-30T09:07:34;5.03;;;3.47;;
13075;SDS011;6604;52.484;13.330;2022-08-30T09:10:01;3.73;;;3.30;;
13075;SDS011;6604;52.484;13.330;2022-08-30T09:12:29;4.00;;;3.70;;
13075;SDS011;6604;52.484;13.330;2022-08-30T09:14:57;4.30;;;3.90;;
13075;SDS011;6604;52.484;13.330;2022-08-30T09:20:08;5.20;;;3.83;;
13075;SDS011;6604;52.484;13.330;2022-08-30T09:22:37;4.33;;;3.90;;
13075;SDS011;6604;52.484;13.330;2022-08-30T09:25:06;7.47;;;3.47;;
13075;SDS011;6604;52.484;13.330;2022-08-30T09:27:38;5.20;;;3.50;;
13075;SDS011;6604;52.484;13.330;2022-08-30T09:30:13;2.80;;;2.60;;
13075;SDS011;6604;52.484;13.330;2022-08-30T09:32:41;4.40;;;2.97;;
13075;SDS011;6604;52.484;13.330;2022-08-30T09:35:09;4.90;;;2.40;;
13075;SDS011;6604;52.484;13.330;2022-08-30T09:37:39;2.70;;;2.20;;
13075;SDS011;6604;52.484;13.330;2022-08-30T09:40:11;2.40;;;2.10;;
13075;SDS011;6604;52.484;13.330;2022-08-30T09:42:59;2.50;;;1.90;;
13075;SDS011;6604;52.484;13.330;2022-08-30T09:45:30;3.87;;;1.93;;
13075;SDS011;6604;52.484;13.330;2022-08-30T09:47:58;1.97;;;1.87;;
13075;SDS011;6604;52.484;13.330;2022-08-30T09:50:29;2.90;;;1.50;;
13075;SDS011;6604;52.484;13.330;2022-08-30T09:53:02;2.20;;;2.10;;
13075;SDS011;6604;52.484;13.330;2022-08-30T09:55:42;2.57;;;1.93;;
13075;SDS011;6604;52.484;13.330;2022-08-30T09:58:18;2.10;;;1.60;;
13075;SDS011;6604;52.484;13.330;2022-08-30T10:00:47;1.77;;;1.67;;
13075;SDS011;6604;52.484;13.330;2022-08-30T10:03:32;2.63;;;1.50;;
13075;SDS011;6604;52.484;13.330;2022-08-30T10:06:06;1.90;;;1.50;;
13075;SDS011;6604;52.484;13.330;2022-08-30T10:08:39;2.07;;;1.40;;
13075;SDS011;6604;52.484;13.330;2022-08-30T10:11:11;1.60;;;1.20;;
13075;SDS011;6604;52.484;13.330;2022-08-30T10:13:45;4.63;;;1.50;;
13075;SDS011;6604;52.484;13.330;2022-08-30T10:16:29;1.60;;;1.50;;
13075;SDS011;6604;52.484;13.330;2022-08-30T10:19:20;2.20;;;1.20;;
13075;SDS011;6604;52.484;13.330;2022-08-30T10:27:48;2.10;;;1.33;;
13075;SDS011;6604;52.484;13.330;2022-08-30T10:30:18;2.63;;;1.40;;
13075;SDS011;6604;52.484;13.330;2022-08-30T10:32:47;1.93;;;1.30;;
13075;SDS011;6604;52.484;13.330;2022-08-30T10:35:18;1.80;;;1.30;;
13075;SDS011;6604;52.484;13.330;2022-08-30T10:37:47;1.90;;;1.63;;
13075;SDS011;6604;52.484;13.330;2022-08-30T10:40:17;2.37;;;1.43;;
13075;SDS011;6604;52.484;13.330;2022-08-30T10:43:03;2.03;;;1.40;;
13075;SDS011;6604;52.484;13.330;2022-08-30T10:45:35;1.63;;;1.20;;
13075;SDS011;6604;52.484;13.330;2022-08-30T10:48:04;1.37;;;1.27;;
13075;SDS011;6604;52.484;13.330;2022-08-30T10:50:33;1.30;;;1.20;;
13075;SDS011;6604;52.484;13.330;2022-08-30T10:53:02;1.63;;;1.53;;
13075;SDS011;6604;52.484;13.330;2022-08-30T10:55:33;1.57;;;1.33;;
13075;SDS011;6604;52.484;13.330;2022-08-30T10:58:01;3.03;;;1.37;;
13075;SDS011;6604;52.484;13.330;2022-08-30T11:00:28;1.60;;;1.50;;
13075;SDS011;6604;52.484;13.330;2022-08-30T11:03:01;3.33;;;1.60;;
13075;SDS011;6604;52.484;13.330;2022-08-30T11:05:38;1.40;;;1.30;;
13075;SDS011;6604;52.484;13.330;2022-08-30T11:08:15;1.50;;;1.40;;
13075;SDS011;6604;52.484;13.330;2022-08-30T11:10:47;1.17;;;1.07;;
13075;SDS011;6604;52.484;13.330;2022-08-30T11:13:15;1.20;;;1.10;;
13075;SDS011;6604;52.484;13.330;2022-08-30T11:15:53;1.57;;;1.47;;
13075;SDS011;6604;52.484;13.330;2022-08-30T11:18:22;1.30;;;1.20;;
13075;SDS011;6604;52.484;13.330;2022-08-30T11:20:50;4.00;;;1.40;;
13075;SDS011;6604;52.484;13.330;2022-08-30T11:23:26;1.10;;;1.07;;
13075;SDS011;6604;52.484;13.330;2022-08-30T11:25:55;3.20;;;1.40;;
13075;SDS011;6604;52.484;13.330;2022-08-30T11:31:08;2.67;;;1.30;;
13075;SDS011;6604;52.484;13.330;2022-08-30T11:33:41;1.30;;;1.20;;
13075;SDS011;6604;52.484;13.330;2022-08-30T11:36:08;1.73;;;1.37;;
13075;SDS011;6604;52.484;13.330;2022-08-30T11:41:27;1.10;;;1.00;;
13075;SDS011;6604;52.484;13.330;2022-08-30T11:43:54;3.03;;;1.30;;
13075;SDS011;6604;52.484;13.330;2022-08-30T11:46:34;3.20;;;1.40;;
13075;SDS011;6604;52.484;13.330;2022-08-30T11:49:04;2.03;;;1.13;;
13075;SDS011;6604;52.484;13.330;2022-08-30T11:54:25;1.43;;;1.30;;
13075;SDS011;6604;52.484;13.330;2022-08-30T11:56:55;1.50;;;1.40;;
13075;SDS011;6604;52.484;13.330;2022-08-30T11:59:25;1.50;;;1.20;;
13075;SDS011;6604;52.484;13.330;2022-08-30T12:01:55;1.00;;;1.00;;
13075;SDS011;6604;52.484;13.330;2022-08-30T12:04:27;1.33;;;1.10;;
13075;SDS011;6604;52.484;13.330;2022-08-30T12:06:59;2.90;;;1.30;;
13075;SDS011;6604;52.484;13.330;2022-08-30T12:15:24;2.80;;;1.20;;
13075;SDS011;6604;52.484;13.330;2022-08-30T12:17:52;3.13;;;1.60;;
13075;SDS011;6604;52.484;13.330;2022-08-30T12:20:51;1.30;;;1.10;;
13075;SDS011;6604;52.484;13.330;2022-08-30T12:23:19;2.27;;;1.20;;
13075;SDS011;6604;52.484;13.330;2022-08-30T12:25:45;2.20;;;1.40;;
13075;SDS011;6604;52.484;13.330;2022-08-30T12:28:20;2.03;;;1.50;;
13075;SDS011;6604;52.484;13.330;2022-08-30T12:30:48;2.40;;;1.50;;
13075;SDS011;6604;52.484;13.330;2022-08-30T12:33:22;2.77;;;1.43;;
13075;SDS011;6604;52.484;13.330;2022-08-30T12:35:50;1.93;;;1.40;;
13075;SDS011;6604;52.484;13.330;2022-08-30T12:38:19;1.50;;;1.40;;
13075;SDS011;6604;52.484;13.330;2022-08-30T12:40:50;1.30;;;1.00;;
13075;SDS011;6604;52.484;13.330;2022-08-30T12:43:21;1.10;;;1.00;;
13075;SDS011;6604;52.484;13.330;2022-08-30T12:45:48;1.67;;;1.40;;
13075;SDS011;6604;52.484;13.330;2022-08-30T12:48:15;1.23;;;1.13;;
13075;SDS011;6604;52.484;13.330;2022-08-30T12:50:43;1.10;;;1.10;;
13075;SDS011;6604;52.484;13.330;2022-08-30T12:53:14;1.50;;;1.20;;
13075;SDS011;6604;52.484;13.330;2022-08-30T12:55:50;1.43;;;1.20;;
13075;SDS011;6604;52.484;13.330;2022-08-30T12:58:31;1.77;;;1.40;;
13075;SDS011;6604;52.484;13.330;2022-08-30T13:01:10;1.40;;;1.30;;
13075;SDS011;6604;52.484;13.330;2022-08-30T13:03:37;1.70;;;1.30;;
13075;SDS011;6604;52.484;13.330;2022-08-30T13:06:05;1.80;;;1.10;;
13075;SDS011;6604;52.484;13.330;2022-08-30T13:08:34;4.13;;;1.17;;
13075;SDS011;6604;52.484;13.330;2022-08-30T13:11:02;2.83;;;1.20;;
13075;SDS011;6604;52.484;13.330;2022-08-30T13:13:34;3.03;;;1.60;;
13075;SDS011;6604;52.484;13.330;2022-08-30T13:18:49;1.40;;;1.30;;
13075;SDS011;6604;52.484;13.330;2022-08-30T13:21:21;1.40;;;1.23;;
13075;SDS011;6604;52.484;13.330;2022-08-30T13:23:50;1.83;;;1.27;;
13075;SDS011;6604;52.484;13.330;2022-08-30T13:26:19;2.23;;;2.03;;
13075;SDS011;6604;52.484;13.330;2022-08-30T13:28:47;2.70;;;1.70;;
13075;SDS011;6604;52.484;13.330;2022-08-30T13:31:13;2.00;;;1.77;;
13075;SDS011;6604;52.484;13.330;2022-08-30T13:33:40;3.53;;;1.90;;
13075;SDS011;6604;52.484;13.330;2022-08-30T13:36:09;2.10;;;1.87;;
13075;SDS011;6604;52.484;13.330;2022-08-30T13:38:36;2.63;;;2.20;;
13075;SDS011;6604;52.484;13.330;2022-08-30T13:41:04;2.40;;;2.20;;
13075;SDS011;6604;52.484;13.330;2022-08-30T13:43:31;2.60;;;2.40;;
13075;SDS011;6604;52.484;13.330;2022-08-30T13:45:58;2.63;;;2.20;;
13075;SDS011;6604;52.484;13.330;2022-08-30T13:48:25;2.30;;;2.10;;
13075;SDS011;6604;52.484;13.330;2022-08-30T13:50:51;3.10;;;2.00;;
13075;SDS011;6604;52.484;13.330;2022-08-30T13:53:19;3.80;;;2.20;;
13075;SDS011;6604;52.484;13.330;2022-08-30T13:55:45;3.40;;;2.27;;
13075;SDS011;6604;52.484;13.330;2022-08-30T13:58:13;3.17;;;2.30;;
13075;SDS011;6604;52.484;13.330;2022-08-30T14:00:40;2.40;;;2.20;;
13075;SDS011;6604;52.484;13.330;2022-08-30T14:03:07;1.90;;;1.80;;
13075;SDS011;6604;52.484;13.330;2022-08-30T14:05:36;2.43;;;2.23;;
13075;SDS011;6604;52.484;13.330;2022-08-30T14:08:03;2.50;;;2.20;;
13075;SDS011;6604;52.484;13.330;2022-08-30T14:10:31;2.13;;;1.93;;
13075;SDS011;6604;52.484;13.330;2022-08-30T14:12:57;2.40;;;2.20;;
13075;SDS011;6604;52.484;13.330;2022-08-30T14:15:25;2.77;;;2.40;;
13075;SDS011;6604;52.484;13.330;2022-08-30T14:17:52;2.20;;;2.00;;
13075;SDS011;6604;52.484;13.330;2022-08-30T14:20:18;2.60;;;2.10;;
13075;SDS011;6604;52.484;13.330;2022-08-30T14:22:45;2.60;;;2.37;;
13075;SDS011;6604;52.484;13.330;2022-08-30T14:25:11;3.00;;;2.60;;
13075;SDS011;6604;52.484;13.330;2022-08-30T14:27:38;2.33;;;2.13;;
13075;SDS011;6604;52.484;13.330;2022-08-30T14:30:04;2.33;;;2.13;;
13075;SDS011;6604;52.484;13.330;2022-08-30T14:32:32;5.20;;;1.80;;
13075;SDS011;6604;52.484;13.330;2022-08-30T14:34:59;2.20;;;2.00;;
13075;SDS011;6604;52.484;13.330;2022-08-30T14:37:25;2.23;;;1.90;;
13075;SDS011;6604;52.484;13.330;2022-08-30T14:39:52;3.90;;;2.20;;
13075;SDS011;6604;52.484;13.330;2022-08-30T14:42:18;4.07;;;2.20;;
13075;SDS011;6604;52.484;13.330;2022-08-30T14:44:45;3.10;;;1.80;;
13075;SDS011;6604;52.484;13.330;2022-08-30T14:47:11;4.80;;;1.97;;
13075;SDS011;6604;52.484;13.330;2022-08-30T14:49:39;2.03;;;1.87;;
13075;SDS011;6604;52.484;13.330;2022-08-30T14:52:06;2.20;;;2.00;;
13075;SDS011;6604;52.484;13.330;2022-08-30T14:54:32;2.70;;;1.97;;
13075;SDS011;6604;52.484;13.330;2022-08-30T14:56:59;4.27;;;1.77;;
13075;SDS011;6604;52.484;13.330;2022-08-30T14:59:25;3.23;;;1.87;;
13075;SDS011;6604;52.484;13.330;2022-08-30T15:01:52;3.60;;;2.00;;
13075;SDS011;6604;52.484;13.330;2022-08-30T15:04:19;3.80;;;2.30;;
13075;SDS011;6604;52.484;13.330;2022-08-30T15:06:47;2.57;;;2.10;;
13075;SDS011;6604;52.484;13.330;2022-08-30T15:09:15;2.53;;;2.33;;
13075;SDS011;6604;52.484;13.330;2022-08-30T15:11:43;4.40;;;2.50;;
13075;SDS011;6604;52.484;13.330;2022-08-30T15:14:10;3.17;;;2.50;;
13075;SDS011;6604;52.484;13.330;2022-08-30T15:16:36;2.73;;;2.43;;
13075;SDS011;6604;52.484;13.330;2022-08-30T15:19:04;3.13;;;2.27;;
13075;SDS011;6604;52.484;13.330;2022-08-30T15:21:32;2.70;;;2.50;;
13075;SDS011;6604;52.484;13.330;2022-08-30T15:24:00;9.17;;;3.50;;
13075;SDS011;6604;52.484;13.330;2022-08-30T15:26:27;2.77;;;2.40;;
13075;SDS011;6604;52.484;13.330;2022-08-30T15:28:54;4.23;;;2.50;;
13075;SDS011;6604;52.484;13.330;2022-08-30T15:31:22;3.50;;;2.60;;
13075;SDS011;6604;52.484;13.330;2022-08-30T15:33:49;2.63;;;2.43;;
13075;SDS011;6604;52.484;13.330;2022-08-30T15:36:15;3.47;;;2.13;;
13075;SDS011;6604;52.484;13.330;2022-08-30T15:38:42;2.87;;;2.57;;
13075;SDS011;6604;52.484;13.330;2022-08-30T15:41:11;2.67;;;2.47;;
13075;SDS011;6604;52.484;13.330;2022-08-30T15:43:38;2.93;;;2.73;;
13075;SDS011;6604;52.484;13.330;2022-08-30T15:46:15;3.47;;;2.70;;
13075;SDS011;6604;52.484;13.330;2022-08-30T15:48:42;2.83;;;2.63;;
13075;SDS011;6604;52.484;13.330;2022-08-30T15:51:09;3.80;;;2.60;;
13075;SDS011;6604;52.484;13.330;2022-08-30T15:53:43;3.30;;;2.50;;
13075;SDS011;6604;52.484;13.330;2022-08-30T15:56:11;2.80;;;2.50;;
13075;SDS011;6604;52.484;13.330;2022-08-30T15:58:38;4.50;;;2.77;;
13075;SDS011;6604;52.484;13.330;2022-08-30T16:01:05;2.90;;;2.70;;
13075;SDS011;6604;52.484;13.330;2022-08-30T16:03:32;3.27;;;2.60;;
13075;SDS011;6604;52.484;13.330;2022-08-30T16:05:59;2.60;;;2.20;;
13075;SDS011;6604;52.484;13.330;2022-08-30T16:08:26;2.60;;;2.40;;
13075;SDS011;6604;52.484;13.330;2022-08-30T16:10:52;2.77;;;2.53;;
13075;SDS011;6604;52.484;13.330;2022-08-30T16:13:26;2.50;;;2.30;;
13075;SDS011;6604;52.484;13.330;2022-08-30T16:15:53;2.80;;;2.57;;
13075;SDS011;6604;52.484;13.330;2022-08-30T16:18:19;4.10;;;2.63;;
13075;SDS011;6604;52.484;13.330;2022-08-30T16:20:45;3.47;;;2.80;;
13075;SDS011;6604;52.484;13.330;2022-08-30T16:23:12;3.93;;;3.00;;
13075;SDS011;6604;52.484;13.330;2022-08-30T16:25:38;2.83;;;2.63;;
13075;SDS011;6604;52.484;13.330;2022-08-30T16:28:05;2.47;;;2.27;;
13075;SDS011;6604;52.484;13.330;2022-08-30T16:30:33;2.63;;;2.40;;
13075;SDS011;6604;52.484;13.330;2022-08-30T16:33:00;2.30;;;2.10;;
13075;SDS011;6604;52.484;13.330;2022-08-30T16:35:26;1.97;;;1.80;;
13075;SDS011;6604;52.484;13.330;2022-08-30T16:37:52;4.50;;;1.90;;
13075;SDS011;6604;52.484;13.330;2022-08-30T16:40:19;2.40;;;2.23;;
13075;SDS011;6604;52.484;13.330;2022-08-30T16:42:45;2.43;;;2.17;;
13075;SDS011;6604;52.484;13.330;2022-08-30T16:45:12;2.50;;;2.30;;
13075;SDS011;6604;52.484;13.330;2022-08-30T16:47:40;2.50;;;2.30;;
13075;SDS011;6604;52.484;13.330;2022-08-30T16:50:06;2.03;;;1.80;;
13075;SDS011;6604;52.484;13.330;2022-08-30T16:52:34;2.60;;;2.30;;
13075;SDS011;6604;52.484;13.330;2022-08-30T16:55:01;2.87;;;2.13;;
13075;SDS011;6604;52.484;13.330;2022-08-30T16:57:28;2.20;;;2.07;;
13075;SDS011;6604;52.484;13.330;2022-08-30T16:59:54;2.43;;;2.23;;
13075;SDS011;6604;52.484;13.330;2022-08-30T17:02:20;5.23;;;2.23;;
13075;SDS011;6604;52.484;13.330;2022-08-30T17:04:48;4.03;;;2.40;;
13075;SDS011;6604;52.484;13.330;2022-08-30T17:07:15;2.47;;;2.00;;
13075;SDS011;6604;52.484;13.330;2022-08-30T17:09:41;2.20;;;2.10;;
13075;SDS011;6604;52.484;13.330;2022-08-30T17:12:07;2.40;;;2.20;;
13075;SDS011;6604;52.484;13.330;2022-08-30T17:14:34;3.53;;;2.20;;
13075;SDS011;6604;52.484;13.330;2022-08-30T17:17:00;3.17;;;2.33;;
13075;SDS011;6604;52.484;13.330;2022-08-30T17:19:27;2.70;;;2.30;;
13075;SDS011;6604;52.484;13.330;2022-08-30T17:21:55;5.93;;;2.13;;
13075;SDS011;6604;52.484;13.330;2022-08-30T17:24:21;5.47;;;3.40;;
13075;SDS011;6604;52.484;13.330;2022-08-30T17:26:48;3.70;;;2.60;;
13075;SDS011;6604;52.484;13.330;2022-08-30T17:29:14;3.17;;;2.30;;
13075;SDS011;6604;52.484;13.330;2022-08-30T17:31:41;2.10;;;2.00;;
13075;SDS011;6604;52.484;13.330;2022-08-30T17:34:10;2.67;;;2.23;;
13075;SDS011;6604;52.484;13.330;2022-08-30T17:36:37;2.93;;;2.43;;
13075;SDS011;6604;52.484;13.330;2022-08-30T17:39:05;3.00;;;2.20;;
13075;SDS011;6604;52.484;13.330;2022-08-30T17:41:31;2.90;;;2.27;;
13075;SDS011;6604;52.484;13.330;2022-08-30T17:43:58;3.40;;;2.00;;
13075;SDS011;6604;52.484;13.330;2022-08-30T17:46:24;2.60;;;2.30;;
13075;SDS011;6604;52.484;13.330;2022-08-30T17:48:51;4.30;;;2.70;;
13075;SDS011;6604;52.484;13.330;2022-08-30T17:51:17;3.97;;;2.60;;
13075;SDS011;6604;52.484;13.330;2022-08-30T17:53:44;3.47;;;2.73;;
13075;SDS011;6604;52.484;13.330;2022-08-30T17:56:12;3.67;;;2.53;;
13075;SDS011;6604;52.484;13.330;2022-08-30T17:58:39;3.47;;;2.77;;
13075;SDS011;6604;52.484;13.330;2022-08-30T18:01:05;2.67;;;2.30;;
13075;SDS011;6604;52.484;13.330;2022-08-30T18:03:32;2.60;;;2.10;;
13075;SDS011;6604;52.484;13.330;2022-08-30T18:05:59;3.03;;;2.47;;
13075;SDS011;6604;52.484;13.330;2022-08-30T18:08:25;2.43;;;2.23;;
13075;SDS011;6604;52.484;13.330;2022-08-30T18:10:52;2.70;;;2.40;;
13075;SDS011;6604;52.484;13.330;2022-08-30T18:13:20;2.63;;;2.30;;
13075;SDS011;6604;52.484;13.330;2022-08-30T18:15:46;4.90;;;2.67;;
13075;SDS011;6604;52.484;13.330;2022-08-30T18:18:13;2.47;;;2.20;;
13075;SDS011;6604;52.484;13.330;2022-08-30T18:20:39;3.37;;;2.40;;
13075;SDS011;6604;52.484;13.330;2022-08-30T18:23:06;3.17;;;2.70;;
13075;SDS011;6604;52.484;13.330;2022-08-30T18:25:32;3.23;;;2.07;;
13075;SDS011;6604;52.484;13.330;2022-08-30T18:27:59;2.70;;;2.30;;
13075;SDS011;6604;52.484;13.330;2022-08-30T18:30:27;2.50;;;2.30;;
13075;SDS011;6604;52.484;13.330;2022-08-30T18:32:53;2.63;;;2.23;;
13075;SDS011;6604;52.484;13.330;2022-08-30T18:35:20;3.07;;;2.20;;
13075;SDS011;6604;52.484;13.330;2022-08-30T18:37:46;2.37;;;1.90;;
13075;SDS011;6604;52.484;13.330;2022-08-30T18:40:13;2.67;;;2.00;;
13075;SDS011;6604;52.484;13.330;2022-08-30T18:42:39;3.33;;;2.13;;
13075;SDS011;6604;52.484;13.330;2022-08-30T18:45:06;7.50;;;2.67;;
13075;SDS011;6604;52.484;13.330;2022-08-30T18:47:34;1.80;;;1.60;;
13075;SDS011;6604;52.484;13.330;2022-08-30T18:50:01;3.47;;;1.60;;
13075;SDS011;6604;52.484;13.330;2022-08-30T18:52:28;4.67;;;2.00;;
13075;SDS011;6604;52.484;13.330;2022-08-30T18:54:54;4.53;;;1.50;;
13075;SDS011;6604;52.484;13.330;2022-08-30T18:57:21;1.97;;;1.50;;
13075;SDS011;6604;52.484;13.330;2022-08-30T18:59:47;2.20;;;1.77;;
13075;SDS011;6604;52.484;13.330;2022-08-30T19:02:16;3.93;;;1.97;;
13075;SDS011;6604;52.484;13.330;2022-08-30T19:04:44;2.93;;;2.00;;
13075;SDS011;6604;52.484;13.330;2022-08-30T19:07:12;2.77;;;1.70;;
13075;SDS011;6604;52.484;13.330;2022-08-30T19:09:39;2.17;;;1.97;;
13075;SDS011;6604;52.484;13.330;2022-08-30T19:12:05;2.07;;;1.60;;
13075;SDS011;6604;52.484;13.330;2022-08-30T19:14:32;2.23;;;1.83;;
13075;SDS011;6604;52.484;13.330;2022-08-30T19:16:58;2.40;;;2.03;;
13075;SDS011;6604;52.484;13.330;2022-08-30T19:19:25;2.73;;;2.27;;
13075;SDS011;6604;52.484;13.330;2022-08-30T19:21:53;4.60;;;2.43;;
13075;SDS011;6604;52.484;13.330;2022-08-30T19:24:19;2.00;;;1.90;;
13075;SDS011;6604;52.484;13.330;2022-08-30T19:26:46;3.67;;;2.40;;
13075;SDS011;6604;52.484;13.330;2022-08-30T19:29:12;3.13;;;2.40;;
13075;SDS011;6604;52.484;13.330;2022-08-30T19:31:39;2.60;;;2.40;;
13075;SDS011;6604;52.484;13.330;2022-08-30T19:34:05;3.07;;;2.47;;
13075;SDS011;6604;52.484;13.330;2022-08-30T19:36:32;2.80;;;2.40;;
13075;SDS011;6604;52.484;13.330;2022-08-30T19:39:00;3.00;;;2.67;;
13075;SDS011;6604;52.484;13.330;2022-08-30T19:41:26;5.67;;;2.80;;
13075;SDS011;6604;52.484;13.330;2022-08-30T19:43:53;2.60;;;2.40;;
13075;SDS011;6604;52.484;13.330;2022-08-30T19:46:20;3.53;;;2.37;;
13075;SDS011;6604;52.484;13.330;2022-08-30T19:48:47;4.10;;;2.33;;
13075;SDS011;6604;52.484;13.330;2022-08-30T19:51:18;3.00;;;2.30;;
13075;SDS011;6604;52.484;13.330;2022-08-30T19:53:44;4.63;;;2.40;;
13075;SDS011;6604;52.484;13.330;2022-08-30T19:56:12;3.03;;;2.73;;
13075;SDS011;6604;52.484;13.330;2022-08-30T19:58:38;3.13;;;2.57;;
13075;SDS011;6604;52.484;13.330;2022-08-30T20:01:05;3.67;;;2.43;;
13075;SDS011;6604;52.484;13.330;2022-08-30T20:03:32;3.50;;;2.83;;
13075;SDS011;6604;52.484;13.330;2022-08-30T20:05:59;2.73;;;2.20;;
13075;SDS011;6604;52.484;13.330;2022-08-30T20:08:25;2.93;;;2.30;;
13075;SDS011;6604;52.484;13.330;2022-08-30T20:10:52;3.43;;;2.73;;
13075;SDS011;6604;52.484;13.330;2022-08-30T20:13:20;2.50;;;2.30;;
13075;SDS011;6604;52.484;13.330;2022-08-30T20:15:50;3.00;;;2.43;;
13075;SDS011;6604;52.484;13.330;2022-08-30T20:18:17;2.87;;;2.30;;
13075;SDS011;6604;52.484;13.330;2022-08-30T20:20:44;2.20;;;2.10;;
13075;SDS011;6604;52.484;13.330;2022-08-30T20:23:11;2.50;;;2.13;;
13075;SDS011;6604;52.484;13.330;2022-08-30T20:25:37;2.63;;;1.90;;
13075;SDS011;6604;52.484;13.330;2022-08-30T20:28:04;2.37;;;2.17;;
13075;SDS011;6604;52.484;13.330;2022-08-30T20:30:32;2.77;;;2.20;;
13075;SDS011;6604;52.484;13.330;2022-08-30T20:32:59;2.50;;;2.30;;
13075;SDS011;6604;52.484;13.330;2022-08-30T20:35:25;2.17;;;1.90;;
13075;SDS011;6604;52.484;13.330;2022-08-30T20:37:51;2.93;;;2.20;;
13075;SDS011;6604;52.484;13.330;2022-08-30T20:40:18;3.80;;;1.93;;
13075;SDS011;6604;52.484;13.330;2022-08-30T20:42:46;2.30;;;1.60;;
13075;SDS011;6604;52.484;13.330;2022-08-30T20:45:14;3.00;;;2.00;;
13075;SDS011;6604;52.484;13.330;2022-08-30T20:47:42;4.10;;;2.13;;
13075;SDS011;6604;52.484;13.330;2022-08-30T20:50:09;3.13;;;1.90;;
13075;SDS011;6604;52.484;13.330;2022-08-30T20:52:37;2.63;;;1.53;;
13075;SDS011;6604;52.484;13.330;2022-08-30T20:55:04;1.70;;;1.60;;
13075;SDS011;6604;52.484;13.330;2022-08-30T20:57:30;1.90;;;1.80;;
13075;SDS011;6604;52.484;13.330;2022-08-30T20:59:57;1.87;;;1.70;;
13075;SDS011;6604;52.484;13.330;2022-08-30T21:02:24;1.60;;;1.50;;
13075;SDS011;6604;52.484;13.330;2022-08-30T21:04:52;1.43;;;1.30;;
13075;SDS011;6604;52.484;13.330;2022-08-30T21:07:18;1.70;;;1.60;;
13075;SDS011;6604;52.484;13.330;2022-08-30T21:09:45;3.40;;;1.70;;
13075;SDS011;6604;52.484;13.330;2022-08-30T21:12:12;1.40;;;1.17;;
13075;SDS011;6604;52.484;13.330;2022-08-30T21:14:38;1.77;;;1.43;;
13075;SDS011;6604;52.484;13.330;2022-08-30T21:17:04;1.53;;;1.43;;
13075;SDS011;6604;52.484;13.330;2022-08-30T21:19:31;1.40;;;1.10;;
13075;SDS011;6604;52.484;13.330;2022-08-30T21:21:59;1.40;;;1.30;;
13075;SDS011;6604;52.484;13.330;2022-08-30T21:24:25;1.17;;;1.00;;
13075;SDS011;6604;52.484;13.330;2022-08-30T21:26:51;1.80;;;1.53;;
13075;SDS011;6604;52.484;13.330;2022-08-30T21:29:19;1.83;;;1.30;;
